Time;durP1;ratioP1;P1;durP2;ratioP2;P2;SDS_P1;SDS_P2;PMS_P1;PMS_P2;Temp;Humidity;BMP_temperature;BMP_pressure;BME280_temperature;BME280_humidity;BME280_pressure;Samples;Min_cycle;Max_cycle;Signal;HPM_P1;HPM_P2
2021/06/04 00:01:29;;;;;;;6.25;4.10;;;;;;;13.09;75.70;99913.55;1795972;80;20978;-74
2021/06/04 00:03:58;;;;;;;7.42;3.83;;;;;;;13.09;73.36;99908.85;1796294;80;20903;-74
2021/06/04 00:06:24;;;;;;;7.28;3.77;;;;;;;13.15;72.56;99911.69;1796290;80;21087;-73
2021/06/04 00:08:51;;;;;;;8.33;4.33;;;;;;;13.19;72.53;99910.52;1796002;80;20872;-72
2021/06/04 00:11:23;;;;;;;7.22;4.05;;;;;;;13.21;72.56;99914.56;1796302;80;20880;-72
2021/06/04 00:14:10;;;;;;;8.95;3.98;;;;;;;13.25;73.00;99912.54;1770390;80;20943;-73
2021/06/04 00:17:00;;;;;;;9.53;4.87;;;;;;;13.26;72.66;99919.67;1763105;81;21527;-72
2021/06/04 00:19:30;;;;;;;6.80;4.03;;;;;;;13.27;73.29;99911.08;1757417;81;21534;-72
2021/06/04 00:22:07;;;;;;;12.53;3.85;;;;;;;13.29;73.56;99909.34;1758332;81;20948;-72
2021/06/04 00:24:37;;;;;;;7.85;3.95;;;;;;;13.26;72.99;99908.64;1758169;81;20920;-73
2021/06/04 00:27:05;;;;;;;6.05;4.15;;;;;;;13.26;74.18;99917.73;1758160;81;21617;-72
2021/06/04 00:29:34;;;;;;;11.50;3.98;;;;;;;13.26;74.83;99914.97;1758240;81;20900;-72
2021/06/04 00:32:00;;;;;;;9.30;3.75;;;;;;;13.23;74.86;99911.48;1758220;81;21874;-72
2021/06/04 00:34:28;;;;;;;9.70;4.53;;;;;;;13.19;74.66;99909.94;1758002;81;20924;-72
2021/06/04 00:36:54;;;;;;;7.67;4.40;;;;;;;13.19;73.78;99909.13;1758076;81;20956;-72
2021/06/04 00:39:24;;;;;;;7.28;4.33;;;;;;;13.21;74.97;99910.43;1757978;81;20885;-73
2021/06/04 00:41:58;;;;;;;6.10;3.87;;;;;;;13.22;75.52;99914.00;1758131;81;21424;-72
2021/06/04 00:44:25;;;;;;;6.15;4.00;;;;;;;13.20;75.47;99910.19;1758493;81;21755;-72
2021/06/04 00:46:52;;;;;;;9.38;4.35;;;;;;;13.22;76.06;99912.63;1758000;81;20861;-72
2021/06/04 00:49:18;;;;;;;10.10;4.17;;;;;;;13.22;75.67;99904.34;1758506;81;20909;-72
2021/06/04 00:51:53;;;;;;;8.68;4.78;;;;;;;13.20;74.63;99908.80;1758003;81;20987;-72
2021/06/04 00:54:22;;;;;;;14.38;4.35;;;;;;;13.21;73.99;99906.86;1758506;81;21484;-72
2021/06/04 00:56:51;;;;;;;8.43;4.00;;;;;;;13.23;73.76;99908.73;1732906;81;20905;-72
2021/06/04 00:59:26;;;;;;;6.62;4.03;;;;;;;13.24;73.50;99903.45;1732356;81;21013;-72
2021/06/04 01:01:48;;;;;;;8.73;3.83;;;;;;;13.24;72.82;99913.11;1757590;81;20869;-72
2021/06/04 01:04:17;;;;;;;11.97;4.28;;;;;;;13.23;73.52;99906.53;1758366;81;20992;-72
2021/06/04 01:07:17;;;;;;;12.10;4.37;;;;;;;13.23;73.30;99905.16;1758188;81;20983;-72
2021/06/04 01:10:33;;;;;;;8.03;4.00;;;;;;;13.25;73.56;99906.45;1758095;81;21535;-73
2021/06/04 01:13:25;;;;;;;12.63;3.95;;;;;;;13.29;74.08;99905.21;1758143;81;20971;-73
2021/06/04 01:16:27;;;;;;;9.80;3.90;;;;;;;13.29;73.83;99914.30;1770983;80;21005;-73
2021/06/04 01:19:28;;;;;;;7.83;4.03;;;;;;;13.31;74.09;99907.89;1784233;79;21488;-73
2021/06/04 01:21:58;;;;;;;7.17;4.00;;;;;;;13.30;74.56;99906.83;1783362;80;21490;-73
2021/06/04 01:24:55;;;;;;;10.68;3.77;;;;;;;13.31;74.90;99905.70;1783483;80;20905;-73
2021/06/04 01:27:28;;;;;;;12.80;5.03;;;;;;;13.30;74.96;99902.70;1783346;80;21022;-73
2021/06/04 01:30:04;;;;;;;7.00;3.83;;;;;;;13.28;75.83;99909.94;1783469;80;20983;-73
2021/06/04 01:32:33;;;;;;;6.12;3.83;;;;;;;13.27;75.94;99909.70;1775514;80;20998;-73
2021/06/04 01:35:17;;;;;;;6.95;3.92;;;;;;;13.29;74.41;99909.34;1783360;80;20845;-73
2021/06/04 01:37:44;;;;;;;6.15;3.55;;;;;;;13.31;73.77;99915.34;1783438;80;21538;-72
2021/06/04 01:40:27;;;;;;;6.05;3.47;;;;;;;13.32;72.75;99909.51;1783321;80;20915;-73
2021/06/04 01:42:57;;;;;;;7.75;3.65;;;;;;;13.33;71.27;99904.80;1783588;80;21031;-73
2021/06/04 01:45:29;;;;;;;7.95;4.05;;;;;;;13.34;70.97;99905.05;1783213;80;20920;-73
2021/06/04 01:48:14;;;;;;;7.00;3.52;;;;;;;13.31;71.71;99909.83;1783836;80;20881;-74
2021/06/04 01:50:50;;;;;;;7.37;3.72;;;;;;;13.26;72.99;99907.27;1782094;80;21962;-73
2021/06/04 01:53:25;;;;;;;10.53;4.12;;;;;;;13.23;74.15;99912.05;1781438;80;20951;-73
2021/06/04 01:55:56;;;;;;;10.63;4.40;;;;;;;13.18;74.60;99908.32;1783063;80;20927;-73
2021/06/04 01:58:35;;;;;;;8.90;4.05;;;;;;;13.16;74.00;99915.30;1783600;80;21546;-73
2021/06/04 02:01:14;;;;;;;6.50;3.72;;;;;;;13.11;74.01;99914.85;1783358;80;21503;-73
2021/06/04 02:03:42;;;;;;;7.12;4.17;;;;;;;13.09;74.74;99916.31;1783668;80;21088;-72
2021/06/04 02:06:11;;;;;;;7.42;3.77;;;;;;;13.05;75.13;99918.90;1782244;80;21424;-72
2021/06/04 02:08:48;;;;;;;6.62;3.75;;;;;;;13.03;75.69;99918.41;1783567;79;21401;-72
2021/06/04 02:11:19;;;;;;;5.08;3.72;;;;;;;13.01;76.06;99908.84;1783365;80;21554;-73
2021/06/04 02:13:48;;;;;;;6.08;3.83;;;;;;;12.99;75.09;99923.52;1756885;80;21435;-73
2021/06/04 02:16:52;;;;;;;5.45;3.72;;;;;;;12.94;75.60;99918.97;1782765;80;21136;-73
2021/06/04 02:20:05;;;;;;;7.83;3.98;;;;;;;12.90;74.59;99922.13;1714039;81;20971;-72
2021/06/04 02:22:49;;;;;;;;;;;;;;;12.88;75.25;99928.52;1768179;81;20926;-72
2021/06/04 02:25:36;;;;;;;11.28;3.92;;;;;;;12.85;75.11;99930.54;1748302;81;20246;-72
2021/06/04 02:28:26;;;;;;;5.90;3.98;;;;;;;12.85;75.52;99928.59;1764791;81;20963;-72
2021/06/04 02:31:02;;;;;;;7.10;4.00;;;;;;;12.88;76.62;99928.52;1734390;82;22035;-74
2021/06/04 02:33:37;;;;;;;12.53;4.60;;;;;;;12.90;77.10;99931.20;1764961;81;20947;-74
2021/06/04 02:36:09;;;;;;;10.05;3.85;;;;;;;12.89;78.16;99927.39;1765411;81;21441;-72
2021/06/04 02:38:53;;;;;;;6.78;4.42;;;;;;;12.88;78.17;99925.77;1765621;80;20915;-72
2021/06/04 02:41:30;;;;;;;11.80;4.50;;;;;;;12.91;77.98;99926.50;1748177;81;20892;-72
2021/06/04 02:44:13;;;;;;;7.42;4.50;;;;;;;12.94;77.48;99929.98;1764782;81;21096;-72
2021/06/04 02:46:48;;;;;;;10.08;4.25;;;;;;;12.99;77.69;99924.89;1734262;82;20970;-72
2021/06/04 02:49:17;;;;;;;10.98;3.77;;;;;;;13.00;76.28;99931.45;1764919;81;21027;-72
2021/06/04 02:52:08;;;;;;;10.10;4.15;;;;;;;13.00;76.96;99930.08;1765483;81;21005;-72
2021/06/04 02:54:32;;;;;;;7.55;4.22;;;;;;;13.01;76.78;99933.08;1743591;81;20939;-72
2021/06/04 02:57:03;;;;;;;5.90;4.37;;;;;;;13.04;76.13;99935.76;1765464;81;22007;-72
2021/06/04 02:59:33;;;;;;;11.53;4.45;;;;;;;13.08;75.78;99941.69;1765786;81;21406;-72
2021/06/04 03:02:05;;;;;;;7.25;4.42;;;;;;;13.13;75.13;99926.37;1765505;80;20927;-72
2021/06/04 03:04:35;;;;;;;8.18;4.00;;;;;;;13.17;74.37;99931.51;1765433;81;20985;-72
2021/06/04 03:07:08;;;;;;;9.13;4.17;;;;;;;13.24;74.90;99934.34;1765526;81;20930;-72
2021/06/04 03:09:40;;;;;;;6.55;4.40;;;;;;;13.29;75.23;99941.05;1765554;81;21029;-72
2021/06/04 03:12:19;;;;;;;9.58;4.58;;;;;;;13.33;74.78;99935.94;1765385;80;21446;-72
2021/06/04 03:14:48;;;;;;;8.25;4.28;;;;;;;13.36;74.42;99939.44;1765717;80;21445;-72
2021/06/04 03:17:15;;;;;;;11.10;5.67;;;;;;;13.40;72.74;99934.89;1768581;79;20949;-72
2021/06/04 03:19:42;;;;;;;6.87;4.40;;;;;;;13.47;72.29;99940.73;1796070;80;20884;-72
2021/06/04 03:22:14;;;;;;;6.03;4.28;;;;;;;13.55;72.43;99944.05;1764616;81;21117;-72
2021/06/04 03:24:43;;;;;;;10.00;4.62;;;;;;;13.60;71.82;99936.17;1792060;80;20883;-73
2021/06/04 03:27:13;;;;;;;9.63;4.95;;;;;;;13.69;70.57;99933.41;1764474;80;20912;-73
2021/06/04 03:29:41;;;;;;;12.53;4.92;;;;;;;13.73;70.02;99937.95;1795668;80;20872;-72
2021/06/04 03:32:11;;;;;;;11.83;4.70;;;;;;;13.78;69.74;99935.02;1764605;81;20907;-72
2021/06/04 03:34:38;;;;;;;12.65;5.15;;;;;;;13.85;69.91;99931.19;1796678;80;21109;-72
2021/06/04 03:37:05;;;;;;;12.15;5.62;;;;;;;13.93;70.04;99935.61;1764660;81;21512;-74
2021/06/04 03:39:38;;;;;;;8.73;4.75;;;;;;;13.97;69.58;99934.63;1796002;80;21232;-73
2021/06/04 03:42:11;;;;;;;6.92;4.55;;;;;;;14.03;70.24;99931.93;1747709;81;21470;-71
2021/06/04 03:44:41;;;;;;;11.83;4.47;;;;;;;14.09;68.72;99933.94;1796313;80;21457;-73
2021/06/04 03:47:08;;;;;;;7.08;4.40;;;;;;;14.16;68.77;99932.87;1764741;81;21157;-72
2021/06/04 03:49:35;;;;;;;11.53;4.28;;;;;;;14.21;69.54;99927.98;1796013;80;20966;-71
2021/06/04 03:52:04;;;;;;;21.37;5.47;;;;;;;14.28;69.09;99932.98;1764670;81;21379;-73
2021/06/04 03:54:39;;;;;;;16.65;5.15;;;;;;;14.33;69.43;99931.42;1796005;80;20927;-73
2021/06/04 03:57:10;;;;;;;17.37;5.45;;;;;;;14.40;68.91;99933.67;1764411;81;20923;-72
2021/06/04 03:59:36;;;;;;;16.20;4.90;;;;;;;14.49;68.76;99934.45;1796268;79;21116;-71
2021/06/04 04:02:08;;;;;;;11.73;5.75;;;;;;;14.59;68.41;99936.02;1764598;80;20912;-73
2021/06/04 04:04:35;;;;;;;9.53;5.85;;;;;;;14.64;67.50;99930.31;1796458;80;20908;-73
2021/06/04 04:07:03;;;;;;;8.40;4.45;;;;;;;14.72;67.22;99933.03;1764914;80;21415;-74
2021/06/04 04:09:31;;;;;;;9.05;4.75;;;;;;;14.80;66.28;99932.74;1797132;79;20968;-73
2021/06/04 04:11:57;;;;;;;15.80;5.05;;;;;;;14.87;65.98;99930.27;1768017;79;21100;-73
2021/06/04 04:14:26;;;;;;;7.67;4.60;;;;;;;14.95;66.28;99927.20;1768123;81;20940;-75
2021/06/04 04:16:54;;;;;;;8.23;4.87;;;;;;;15.02;66.29;99933.02;1768235;81;21008;-73
2021/06/04 04:19:23;;;;;;;8.63;4.42;;;;;;;15.08;66.15;99930.25;1768414;81;21355;-71
2021/06/04 04:21:52;;;;;;;11.22;5.12;;;;;;;15.14;66.06;99925.58;1781447;80;20944;-72
2021/06/04 04:24:24;;;;;;;8.75;4.80;;;;;;;15.22;65.82;99920.31;1781472;80;21100;-74
2021/06/04 04:26:50;;;;;;;6.85;4.10;;;;;;;15.31;65.78;99926.59;1754904;80;21441;-72
2021/06/04 04:29:17;;;;;;;7.55;4.33;;;;;;;15.40;65.09;99920.41;1780630;80;20958;-75
2021/06/04 04:31:47;;;;;;;13.05;4.30;;;;;;;15.45;65.47;99926.55;1779598;80;21016;-75
2021/06/04 04:34:14;;;;;;;7.33;4.00;;;;;;;15.52;64.91;99932.34;1779686;80;20988;-73
2021/06/04 04:36:47;;;;;;;6.45;4.08;;;;;;;15.60;65.15;99934.02;1779227;80;21108;-74
2021/06/04 04:39:21;;;;;;;13.53;3.90;;;;;;;15.66;65.07;99932.05;1779572;80;21105;-73
2021/06/04 04:41:47;;;;;;;5.10;3.70;;;;;;;15.74;64.86;99929.78;1780001;80;20995;-73
2021/06/04 04:44:18;;;;;;;5.95;4.08;;;;;;;15.84;64.47;99925.20;1779861;80;20967;-73
2021/06/04 04:46:45;;;;;;;15.43;4.37;;;;;;;15.99;64.78;99930.67;1781239;80;21068;-73
2021/06/04 04:49:11;;;;;;;24.87;4.53;;;;;;;16.15;62.94;99930.24;1781326;80;21105;-72
2021/06/04 04:51:39;;;;;;;8.30;4.15;;;;;;;16.26;62.77;99925.61;1780623;80;21054;-77
2021/06/04 04:54:08;;;;;;;8.15;3.60;;;;;;;16.35;62.48;99927.70;1781314;80;20976;-75
2021/06/04 04:56:34;;;;;;;6.62;4.37;;;;;;;16.46;62.94;99931.06;1781369;80;20916;-81
2021/06/04 04:59:00;;;;;;;8.73;4.78;;;;;;;16.58;61.75;99928.06;1781370;80;21445;-78
2021/06/04 05:01:27;;;;;;;6.97;4.25;;;;;;;16.62;62.11;99922.06;1781455;80;21084;-80
2021/06/04 05:03:53;;;;;;;14.85;5.80;;;;;;;16.70;61.58;99935.03;1781313;80;20943;-75
2021/06/04 05:06:19;;;;;;;11.50;4.37;;;;;;;16.76;62.07;99938.58;1781754;80;21007;-77
2021/06/04 05:08:47;;;;;;;10.15;4.33;;;;;;;16.81;61.42;99933.37;1780193;80;20920;-78
2021/06/04 05:11:14;;;;;;;7.33;3.83;;;;;;;16.83;61.72;99929.67;1800095;79;20938;-77
2021/06/04 05:13:40;;;;;;;14.35;4.03;;;;;;;16.85;61.26;99937.07;1810406;79;21072;-76
2021/06/04 05:16:07;;;;;;;15.88;4.10;;;;;;;16.91;61.67;99931.52;1770812;79;20967;-77
2021/06/04 05:18:35;;;;;;;11.85;3.87;;;;;;;17.00;61.32;99939.71;1804187;78;20960;-80
2021/06/04 05:21:03;;;;;;;6.95;4.05;;;;;;;17.08;60.87;99936.81;1789426;78;20924;-81
2021/06/04 05:23:30;;;;;;;8.33;3.83;;;;;;;17.17;61.22;99932.52;1789724;79;21425;-75
2021/06/04 05:25:56;;;;;;;6.95;3.85;;;;;;;17.25;59.65;99938.52;1789419;80;21080;-71
2021/06/04 05:28:25;;;;;;;6.58;3.75;;;;;;;17.31;60.05;99931.56;1789553;78;21535;-76
2021/06/04 05:30:55;;;;;;;6.95;3.77;;;;;;;17.39;59.96;99940.87;1789370;78;20893;-77
2021/06/04 05:33:25;;;;;;;5.97;3.62;;;;;;;17.48;60.68;99937.38;1789624;80;20897;-80
2021/06/04 05:35:53;;;;;;;7.33;3.95;;;;;;;17.59;60.33;99935.72;1789445;80;20901;-78
2021/06/04 05:38:20;;;;;;;8.90;3.85;;;;;;;17.66;59.40;99944.28;1789383;80;21943;-74
2021/06/04 05:40:48;;;;;;;6.75;4.20;;;;;;;17.67;58.30;99943.12;1789117;79;20969;-72
2021/06/04 05:43:19;;;;;;;5.37;3.83;;;;;;;17.65;58.88;99948.22;1778051;79;21456;-70
2021/06/04 05:45:45;;;;;;;14.58;4.37;;;;;;;17.65;59.59;99946.83;1796801;79;20970;-70
2021/06/04 05:48:13;;;;;;;7.47;4.10;;;;;;;17.67;59.44;99953.41;1803198;79;20855;-70
2021/06/04 05:50:42;;;;;;;14.25;4.35;;;;;;;17.70;58.78;99945.77;1802994;79;21088;-69
2021/06/04 05:53:10;;;;;;;9.93;4.00;;;;;;;17.76;58.30;99950.72;1802969;79;21407;-70
2021/06/04 05:55:38;;;;;;;12.75;3.80;;;;;;;17.83;58.96;99954.27;1802855;79;20911;-70
2021/06/04 05:58:07;;;;;;;7.58;4.08;;;;;;;17.89;58.77;99957.60;1802831;78;20907;-71
2021/06/04 06:00:40;;;;;;;10.53;3.80;;;;;;;17.92;59.00;99960.45;1803047;78;20973;-70
2021/06/04 06:03:06;;;;;;;6.83;3.85;;;;;;;17.95;58.86;99957.55;1778129;79;21920;-70
2021/06/04 06:05:33;;;;;;;7.50;3.47;;;;;;;18.00;59.06;99955.90;1802811;78;20946;-71
2021/06/04 06:07:59;;;;;;;10.82;3.45;;;;;;;18.08;57.61;99954.93;1802880;79;20824;-71
2021/06/04 06:10:26;;;;;;;8.28;3.80;;;;;;;18.19;57.56;99956.02;1802819;79;21014;-71
2021/06/04 06:12:52;;;;;;;8.55;3.62;;;;;;;18.33;57.89;99956.40;1802977;79;21462;-70
2021/06/04 06:15:20;;;;;;;5.70;3.80;;;;;;;18.44;56.32;99956.09;1802870;79;21105;-70
2021/06/04 06:17:48;;;;;;;6.87;3.67;;;;;;;18.46;54.28;99954.34;1802779;79;20934;-71
2021/06/04 06:20:17;;;;;;;6.65;3.00;;;;;;;18.42;55.54;99959.81;1812311;78;20871;-70
2021/06/04 06:22:44;;;;;;;9.05;3.60;;;;;;;18.45;56.85;99954.13;1812796;77;21541;-70
2021/06/04 06:25:13;;;;;;;10.45;3.47;;;;;;;18.49;55.49;99953.59;1809782;77;20879;-71
2021/06/04 06:27:40;;;;;;;3.85;2.95;;;;;;;18.54;55.19;99955.30;1795015;79;21100;-70
2021/06/04 06:30:10;;;;;;;8.33;3.47;;;;;;;18.56;52.99;99952.97;1780657;80;20957;-71
2021/06/04 06:32:36;;;;;;;9.90;3.83;;;;;;;18.55;54.53;99954.14;1780796;80;20949;-71
2021/06/04 06:35:04;;;;;;;5.35;3.37;;;;;;;18.54;55.23;99956.11;1784657;77;20918;-71
2021/06/04 06:37:30;;;;;;;6.80;3.37;;;;;;;18.57;53.30;99955.39;1811444;79;21018;-74
2021/06/04 06:39:58;;;;;;;8.38;3.85;;;;;;;18.64;54.50;99950.03;1811690;79;22319;-72
2021/06/04 06:42:25;;;;;;;9.58;3.10;;;;;;;18.79;53.04;99956.17;1812614;79;21521;-71
2021/06/04 06:44:52;;;;;;;10.48;3.25;;;;;;;18.94;53.70;99948.97;1802309;77;20997;-74
2021/06/04 06:47:18;;;;;;;7.03;3.47;;;;;;;19.11;51.21;99963.05;1799126;79;21403;-75
2021/06/04 06:49:45;;;;;;;7.60;3.25;;;;;;;19.24;53.66;99959.55;1800357;79;20911;-72
2021/06/04 06:52:12;;;;;;;6.85;3.37;;;;;;;19.39;52.69;99962.30;1769203;80;21154;-75
2021/06/04 06:54:41;;;;;;;7.62;3.30;;;;;;;19.52;52.97;99953.83;1740332;80;22196;-75
2021/06/04 06:57:08;;;;;;;9.23;3.12;;;;;;;19.63;51.48;99953.48;1796785;79;21416;-74
2021/06/04 06:59:34;;;;;;;9.35;3.10;;;;;;;19.73;51.20;99944.50;1797686;79;20956;-73
2021/06/04 07:02:05;;;;;;;6.08;2.92;;;;;;;19.86;51.20;99952.92;1789389;80;21078;-74
2021/06/04 07:04:32;;;;;;;8.38;2.80;;;;;;;19.99;47.96;99945.21;1768101;80;21884;-73
2021/06/04 07:06:59;;;;;;;10.03;3.42;;;;;;;20.06;48.24;99941.97;1734261;80;21577;-74
2021/06/04 07:09:26;;;;;;;14.07;3.47;;;;;;;20.10;48.57;99934.48;1786031;80;20967;-74
2021/06/04 07:11:54;;;;;;;6.58;2.60;;;;;;;20.16;48.89;99940.56;1772327;80;20986;-72
2021/06/04 07:14:26;;;;;;;5.67;2.60;;;;;;;20.26;47.65;99934.93;1775961;80;21525;-73
2021/06/04 07:16:53;;;;;;;7.78;3.20;;;;;;;20.36;46.90;99931.52;1784845;80;22021;-72
2021/06/04 07:19:20;;;;;;;5.40;2.47;;;;;;;20.44;46.72;99940.27;1759457;80;21022;-72
2021/06/04 07:21:46;;;;;;;6.15;2.58;;;;;;;20.51;45.02;99938.98;1760189;80;21049;-72
2021/06/04 07:24:13;;;;;;;7.37;2.70;;;;;;;20.56;45.94;99931.70;1786821;80;21592;-70
2021/06/04 07:26:48;;;;;;;5.45;2.33;;;;;;;20.68;44.31;99929.30;1756301;81;20933;-72
2021/06/04 07:29:16;;;;;;;4.90;1.90;;;;;;;20.78;43.06;99925.87;1786865;80;21123;-72
2021/06/04 07:31:43;;;;;;;3.92;2.12;;;;;;;20.89;43.91;99933.80;1755938;81;20912;-73
2021/06/04 07:34:09;;;;;;;5.80;2.00;;;;;;;21.02;43.05;99932.99;1785825;79;20934;-73
2021/06/04 07:36:40;;;;;;;3.20;2.12;;;;;;;21.14;41.52;99923.59;1783936;80;21490;-72
2021/06/04 07:39:10;;;;;;;8.63;1.77;;;;;;;21.25;42.42;99919.80;1764686;81;21538;-72
2021/06/04 07:41:37;;;;;;;3.42;2.10;;;;;;;21.32;41.53;99928.86;1789892;80;21907;-73
2021/06/04 07:44:04;;;;;;;7.22;2.00;;;;;;;21.32;41.07;99923.27;1795703;80;20927;-75
2021/06/04 07:46:31;;;;;;;8.33;2.45;;;;;;;21.33;39.52;99920.70;1770287;80;20926;-76
2021/06/04 07:48:57;;;;;;;7.55;2.22;;;;;;;21.37;40.50;99918.75;1787179;80;21046;-72
2021/06/04 07:51:29;;;;;;;9.73;2.60;;;;;;;21.49;40.03;99919.88;1764429;81;21521;-72
2021/06/04 07:53:57;;;;;;;4.30;1.67;;;;;;;21.64;39.65;99927.25;1763738;81;21113;-73
2021/06/04 07:56:25;;;;;;;6.00;2.00;;;;;;;21.81;37.84;99922.25;1763225;81;21623;-73
2021/06/04 07:58:53;;;;;;;4.00;1.70;;;;;;;21.90;37.36;99923.56;1763370;81;20947;-73
2021/06/04 08:01:19;;;;;;;3.40;2.00;;;;;;;21.88;37.36;99925.94;1763275;81;20986;-73
2021/06/04 08:03:46;;;;;;;11.55;2.45;;;;;;;21.80;36.31;99926.23;1763335;81;21532;-73
2021/06/04 08:06:14;;;;;;;10.38;2.05;;;;;;;21.75;36.56;99923.19;1763239;81;21125;-73
2021/06/04 08:08:43;;;;;;;6.65;2.00;;;;;;;21.84;37.72;99913.11;1763720;81;20880;-71
2021/06/04 08:11:13;;;;;;;8.83;2.00;;;;;;;21.88;36.27;99910.56;1764587;81;20855;-72
2021/06/04 08:13:40;;;;;;;6.40;1.92;;;;;;;21.97;35.08;99915.81;1764338;81;21007;-72
2021/06/04 08:16:11;;;;;;;4.37;1.80;;;;;;;22.04;37.06;99906.14;1764626;81;20935;-72
2021/06/04 08:18:37;;;;;;;11.95;2.58;;;;;;;22.30;33.90;99896.80;1764632;81;21027;-72
2021/06/04 08:21:15;;;;;;;8.38;2.30;;;;;;;22.54;35.24;99917.16;1767577;81;21533;-72
2021/06/04 08:23:44;;;;;;;14.35;2.47;;;;;;;22.81;36.00;99916.41;1767398;81;21015;-72
2021/06/04 08:26:16;;;;;;;7.97;2.65;;;;;;;23.19;36.81;99917.02;1773337;79;21110;-73
2021/06/04 08:28:43;;;;;;;6.25;2.15;;;;;;;23.33;34.12;99922.09;1791347;79;20931;-72
2021/06/04 08:31:09;;;;;;;7.00;1.98;;;;;;;23.24;35.26;99916.64;1781590;79;21482;-72
2021/06/04 08:33:41;;;;;;;6.22;2.33;;;;;;;23.26;35.93;99916.45;1767507;81;20919;-75
2021/06/04 08:36:12;;;;;;;5.55;2.30;;;;;;;23.48;35.81;99919.36;1783792;79;21442;-74
2021/06/04 08:38:41;;;;;;;3.45;1.60;;;;;;;23.67;34.18;99915.67;1799079;79;20876;-75
2021/06/04 08:41:33;;;;;;;7.62;2.20;;;;;;;23.84;33.51;99913.30;1799149;79;20978;-74
2021/06/04 08:44:29;;;;;;;9.90;2.00;;;;;;;24.12;34.02;99909.16;1770737;79;21142;-75
2021/06/04 08:47:06;;;;;;;6.00;1.87;;;;;;;24.58;33.79;99904.98;1767855;81;20922;-75
2021/06/04 08:50:11;;;;;;;6.87;1.90;;;;;;;24.55;32.52;99910.59;1767346;81;20847;-74
2021/06/04 08:52:59;;;;;;;8.58;2.00;;;;;;;24.51;33.15;99913.41;1711411;82;20980;-74
2021/06/04 08:55:58;;;;;;;8.63;1.98;;;;;;;24.24;31.51;99922.80;1793519;79;20970;-75
2021/06/04 08:58:45;;;;;;;6.40;2.08;;;;;;;23.80;32.25;99918.89;1767628;81;21142;-74
2021/06/04 09:01:19;;;;;;;6.45;1.70;;;;;;;23.81;32.39;99914.09;1767814;81;20915;-74
2021/06/04 09:03:55;;;;;;;2.72;1.65;;;;;;;24.22;32.97;99906.16;1780468;79;21700;-73
2021/06/04 09:06:46;;;;;;;4.85;2.00;;;;;;;24.56;31.35;99913.00;1772629;79;20978;-73
2021/06/04 09:09:30;;;;;;;4.97;2.15;;;;;;;24.67;29.96;99898.36;1767740;81;20978;-73
2021/06/04 09:12:02;;;;;;;7.85;2.20;;;;;;;24.95;32.45;99900.30;1767547;81;21108;-73
2021/06/04 09:14:29;;;;;;;9.88;2.02;;;;;;;25.19;30.48;99898.67;1767722;81;20872;-74
2021/06/04 09:17:32;;;;;;;10.88;2.35;;;;;;;25.28;29.60;99888.41;1767601;81;21481;-74
2021/06/04 09:20:13;;;;;;;3.40;1.72;;;;;;;25.15;30.11;99894.27;1766142;81;21007;-74
2021/06/04 09:22:44;;;;;;;9.37;2.50;;;;;;;24.93;31.04;99897.70;1764873;81;20930;-73
2021/06/04 09:25:18;;;;;;;7.00;1.98;;;;;;;24.54;31.41;99897.77;1764876;81;21109;-73
2021/06/04 09:27:50;;;;;;;3.65;1.85;;;;;;;24.14;31.76;99905.36;1764771;81;20990;-73
2021/06/04 09:30:40;;;;;;;3.40;1.55;;;;;;;23.75;32.38;99897.45;1760503;81;20935;-73
2021/06/04 09:33:24;;;;;;;6.33;1.90;;;;;;;23.36;30.43;99898.09;1764724;81;20887;-73
2021/06/04 09:36:00;;;;;;;6.25;1.82;;;;;;;23.15;33.41;99900.79;1777649;80;20912;-73
2021/06/04 09:38:50;;;;;;;2.70;1.77;;;;;;;23.13;34.53;99898.98;1792866;80;21770;-73
2021/06/04 09:41:22;;;;;;;4.37;1.65;;;;;;;23.04;32.90;99900.76;1764398;81;20919;-73
2021/06/04 09:43:50;;;;;;;;;;;;;;;23.14;34.10;99907.58;1795433;80;20875;-75
2021/06/04 09:46:38;;;;;;;4.15;1.80;;;;;;;23.62;35.39;99908.25;1795838;80;20076;-74
2021/06/04 09:49:05;;;;;;;4.65;1.98;;;;;;;23.88;32.54;99901.49;1744496;81;20900;-74
2021/06/04 09:51:35;;;;;;;7.97;2.00;;;;;;;23.89;30.84;99893.28;1795839;80;21146;-73
2021/06/04 09:54:25;;;;;;;10.95;2.00;;;;;;;23.67;33.48;99899.45;1764708;80;21427;-73
2021/06/04 09:57:11;;;;;;;3.87;1.83;;;;;;;23.55;33.32;99904.02;1796269;79;21287;-73
2021/06/04 09:59:37;;;;;;;6.00;1.92;;;;;;;23.59;31.25;99900.03;1744841;81;20892;-74
2021/06/04 10:02:06;;;;;;;16.42;1.98;;;;;;;23.53;30.50;99893.20;1795917;80;20954;-74
2021/06/04 10:04:33;;;;;;;4.75;1.90;;;;;;;23.55;33.37;99894.20;1762234;81;21082;-74
2021/06/04 10:07:19;;;;;;;6.53;2.02;;;;;;;23.89;34.75;99889.88;1795774;80;20915;-73
2021/06/04 10:09:46;;;;;;;8.25;1.80;;;;;;;24.39;32.82;99878.73;1744388;81;20931;-73
2021/06/04 10:12:35;;;;;;;7.72;1.82;;;;;;;25.03;28.65;99873.64;1795902;80;20920;-73
2021/06/04 10:15:22;;;;;;;10.55;1.80;;;;;;;25.40;31.78;99868.30;1764720;81;20919;-73
2021/06/04 10:18:01;;;;;;;7.80;1.80;;;;;;;25.44;30.02;99866.84;1795854;79;21447;-74
2021/06/04 10:20:35;;;;;;;8.53;1.67;;;;;;;25.45;29.47;99874.06;1762575;81;21479;-73
2021/06/04 10:23:15;;;;;;;5.90;1.90;;;;;;;25.23;29.38;99880.40;1796108;80;20889;-74
2021/06/04 10:25:52;;;;;;;15.43;3.08;;;;;;;24.88;30.63;99882.66;1770152;80;20918;-74
2021/06/04 10:28:42;;;;;;;6.90;1.82;;;;;;;24.61;30.10;99880.92;1799763;77;20910;-74
2021/06/04 10:31:18;;;;;;;5.33;1.70;;;;;;;24.69;31.21;99890.94;1802959;78;21149;-73
2021/06/04 10:34:05;;;;;;;19.15;3.02;;;;;;;24.97;30.82;99883.08;1801646;79;20879;-73
2021/06/04 10:36:36;;;;;;;13.95;2.50;;;;;;;25.25;29.60;99873.17;1813245;79;20859;-73
2021/06/04 10:39:16;;;;;;;14.95;2.65;;;;;;;25.58;29.26;99879.42;1812865;79;20875;-73
2021/06/04 10:42:09;;;;;;;5.10;1.92;;;;;;;25.93;30.39;99877.86;1812273;79;20902;-73
2021/06/04 10:45:02;;;;;;;18.52;2.52;;;;;;;26.26;29.94;99878.41;1813071;79;21152;-73
2021/06/04 10:47:51;;;;;;;;;;;;;;;26.48;27.62;99869.21;1791138;79;20866;-72
2021/06/04 10:50:43;;;;;;;6.60;1.90;;;;;;;26.54;28.55;99870.36;1734469;81;20115;-74
2021/06/04 10:53:28;;;;;;;;;;;;;;;26.69;28.22;99872.41;1750849;82;20892;-74
2021/06/04 10:56:06;;;;;;;12.73;2.65;;;;;;;26.83;28.10;99863.22;1781186;80;20192;-74
2021/06/04 10:58:56;;;;;;;28.80;4.90;;;;;;;26.85;28.40;99869.84;1750215;82;21981;-73
2021/06/04 11:01:33;;;;;;;17.15;2.60;;;;;;;27.03;28.01;99866.86;1740258;82;20916;-73
2021/06/04 11:04:23;;;;;;;9.00;2.02;;;;;;;27.14;27.36;99861.30;1751542;82;21004;-73
2021/06/04 11:07:10;;;;;;;13.00;1.90;;;;;;;27.34;28.56;99869.89;1779620;80;20915;-75
2021/06/04 11:10:10;;;;;;;12.70;2.87;;;;;;;27.72;26.39;99858.56;1780944;80;21038;-74
2021/06/04 11:13:06;;;;;;;;;;;;;;;27.63;27.83;99868.95;1754157;82;20911;-74
2021/06/04 11:16:00;;;;;;;8.78;2.35;;;;;;;27.22;26.80;99864.80;1767314;81;20109;-75
2021/06/04 11:18:48;;;;;;;14.80;3.20;;;;;;;26.55;28.43;99862.11;1780737;80;20963;-75
2021/06/04 11:21:36;;;;;;;5.40;1.70;;;;;;;26.27;28.39;99859.70;1781162;80;22605;-75
2021/06/04 11:24:17;;;;;;;3.60;1.92;;;;;;;26.41;30.57;99858.02;1752465;81;20879;-75
2021/06/04 11:26:48;;;;;;;8.98;2.27;;;;;;;26.83;28.75;99859.60;1782909;79;21072;-74
2021/06/04 11:29:22;;;;;;;9.63;2.62;;;;;;;26.94;28.49;99859.68;1755612;79;20985;-75
2021/06/04 11:32:13;;;;;;;9.65;2.67;;;;;;;26.90;28.75;99860.94;1809363;79;20911;-74
2021/06/04 11:35:04;;;;;;;13.05;2.50;;;;;;;26.82;28.21;99860.81;1813240;79;20876;-74
2021/06/04 11:37:53;;;;;;;10.18;2.98;;;;;;;26.83;29.00;99866.64;1813376;79;20907;-72
2021/06/04 11:40:29;;;;;;;8.75;3.02;;;;;;;27.00;28.95;99864.28;1813532;79;21118;-76
2021/06/04 11:43:28;;;;;;;5.45;2.17;;;;;;;27.21;29.07;99863.20;1813068;79;20905;-75
2021/06/04 11:46:29;;;;;;;5.00;2.15;;;;;;;27.45;27.58;99855.05;1785106;79;20970;-73
2021/06/04 11:49:04;;;;;;;10.45;2.05;;;;;;;27.84;27.55;99860.16;1814020;79;20967;-73
2021/06/04 11:51:49;;;;;;;10.95;4.70;;;;;;;28.15;27.82;99854.46;1810802;79;20923;-73
2021/06/04 11:54:29;;;;;;;8.08;2.15;;;;;;;28.22;25.52;99859.41;1770582;80;21123;-73
2021/06/04 11:57:02;;;;;;;8.97;2.23;;;;;;;27.98;25.65;99849.89;1778903;80;21482;-75
2021/06/04 11:59:54;;;;;;;6.78;2.52;;;;;;;27.29;26.13;99852.84;1781349;80;21589;-75
2021/06/04 12:02:34;;;;;;;4.08;1.92;;;;;;;26.57;27.44;99852.64;1781564;80;20928;-73
2021/06/04 12:05:20;;;;;;;9.60;2.12;;;;;;;25.88;28.35;99865.63;1781626;80;21430;-74